createdAt,value
2023-01-19T00:00:22.528Z,0.77
2023-01-19T00:02:50.788Z,1.10
2023-01-19T00:05:19.017Z,1.00
2023-01-19T00:07:48.528Z,0.87
2023-01-19T00:10:16.742Z,1.33
2023-01-19T00:12:44.912Z,2.80
2023-01-19T00:15:13.582Z,7.13
2023-01-19T00:17:42.328Z,4.00
2023-01-19T00:20:11.687Z,4.93
2023-01-19T00:22:39.829Z,18.30
2023-01-19T00:25:09.839Z,28.10
2023-01-19T00:27:37.987Z,22.93
2023-01-19T00:30:06.723Z,30.33
2023-01-19T00:32:35.003Z,23.77
2023-01-19T00:35:03.171Z,37.43
2023-01-19T00:37:31.329Z,19.30
2023-01-19T00:39:59.542Z,28.97
2023-01-19T00:42:41.117Z,43.73
2023-01-19T00:45:09.976Z,44.20
2023-01-19T00:47:39.242Z,38.43
2023-01-19T00:50:07.807Z,54.20
2023-01-19T00:52:35.964Z,59.10
2023-01-19T00:55:04.142Z,54.00
2023-01-19T00:57:33.661Z,49.73
2023-01-19T01:00:01.876Z,52.17
2023-01-19T01:02:30.204Z,60.93
2023-01-19T01:04:58.555Z,22.83
2023-01-19T01:07:26.788Z,88.03
2023-01-19T01:09:54.963Z,97.30
2023-01-19T01:12:23.133Z,92.30
2023-01-19T01:14:52.638Z,118.80
2023-01-19T01:17:25.048Z,124.37
2023-01-19T01:19:53.268Z,152.90
2023-01-19T01:22:21.404Z,119.80
2023-01-19T01:24:49.562Z,59.27
2023-01-19T01:27:17.770Z,73.67
2023-01-19T01:29:46.505Z,76.40
2023-01-19T01:32:16.599Z,100.80
2023-01-19T01:34:44.833Z,142.83
2023-01-19T01:37:12.959Z,186.20
2023-01-19T01:39:41.129Z,192.63
2023-01-19T01:42:15.209Z,191.53
2023-01-19T01:44:51.216Z,123.07
2023-01-19T01:47:23.430Z,170.73
2023-01-19T01:49:52.624Z,128.33
2023-01-19T01:52:21.462Z,130.80
2023-01-19T01:54:49.686Z,136.00
2023-01-19T01:57:17.815Z,172.03
2023-01-19T01:59:48.421Z,137.13
2023-01-19T02:02:44.005Z,129.87
2023-01-19T02:05:15.028Z,116.73
2023-01-19T02:08:03.054Z,83.60
2023-01-19T02:10:49.076Z,83.67
2023-01-19T02:13:20.944Z,96.67
2023-01-19T02:15:50.877Z,83.47
2023-01-19T02:18:19.479Z,101.17
2023-01-19T02:20:54.089Z,150.97
2023-01-19T02:23:23.295Z,123.23
2023-01-19T02:25:53.039Z,67.00
2023-01-19T02:28:21.290Z,68.57
2023-01-19T02:30:49.472Z,87.27
2023-01-19T02:33:17.669Z,53.90
2023-01-19T02:35:46.699Z,71.23
2023-01-19T02:38:16.687Z,57.63
2023-01-19T02:40:46.290Z,51.93
2023-01-19T02:43:17.218Z,49.27
2023-01-19T02:45:45.780Z,35.00
2023-01-19T02:48:14.016Z,30.97
2023-01-19T02:50:46.122Z,29.47
2023-01-19T02:53:22.996Z,36.43
2023-01-19T02:55:55.470Z,59.07
2023-01-19T02:58:27.205Z,74.57
2023-01-19T03:01:00.501Z,81.43
2023-01-19T03:03:32.616Z,83.13
2023-01-19T03:06:05.330Z,113.70
2023-01-19T03:08:37.904Z,112.73
2023-01-19T03:11:06.850Z,137.37
2023-01-19T03:13:43.534Z,174.67
2023-01-19T03:16:14.565Z,184.80
2023-01-19T03:18:44.276Z,134.90
2023-01-19T03:21:13.910Z,127.67
2023-01-19T03:23:43.238Z,141.60
2023-01-19T03:26:12.533Z,151.27
2023-01-19T03:28:43.928Z,193.47
2023-01-19T03:31:14.386Z,179.50
2023-01-19T03:33:45.128Z,205.57
2023-01-19T03:36:15.793Z,190.07
2023-01-19T03:38:45.139Z,161.10
2023-01-19T03:41:15.451Z,136.67
2023-01-19T03:43:45.668Z,122.70
2023-01-19T03:46:17.240Z,138.33
2023-01-19T03:48:46.350Z,146.83
2023-01-19T03:51:14.648Z,161.43
2023-01-19T03:53:43.013Z,128.07
2023-01-19T03:56:16.640Z,100.80
2023-01-19T03:58:46.217Z,88.13
2023-01-19T04:01:14.924Z,66.40
2023-01-19T04:03:43.410Z,42.27
2023-01-19T04:06:11.813Z,27.40
2023-01-19T04:08:40.770Z,27.13
2023-01-19T04:11:09.729Z,23.93
2023-01-19T04:13:38.181Z,18.40
2023-01-19T04:16:08.591Z,19.73
2023-01-19T04:18:36.909Z,18.10
2023-01-19T04:21:06.068Z,32.33
2023-01-19T04:23:34.585Z,22.37
2023-01-19T04:26:03.890Z,25.63
2023-01-19T04:28:32.475Z,22.93
2023-01-19T04:31:00.733Z,29.33
2023-01-19T04:33:30.285Z,30.23
2023-01-19T04:35:58.533Z,24.90
2023-01-19T04:38:27.080Z,20.47
2023-01-19T04:40:55.769Z,14.83
2023-01-19T04:43:24.423Z,9.43
2023-01-19T04:45:52.568Z,6.50
2023-01-19T04:48:20.849Z,5.30
2023-01-19T04:50:52.240Z,4.20
2023-01-19T04:53:20.392Z,3.70
2023-01-19T04:55:48.630Z,3.60
2023-01-19T04:58:17.020Z,3.47
2023-01-19T05:00:45.194Z,2.93
2023-01-19T05:03:13.572Z,2.80
2023-01-19T05:05:41.811Z,2.37
2023-01-19T05:08:11.354Z,2.87
2023-01-19T05:10:39.504Z,1.93
2023-01-19T05:13:07.664Z,1.93
2023-01-19T05:15:35.867Z,1.60
2023-01-19T05:18:04.074Z,2.37
2023-01-19T05:20:32.195Z,2.20
2023-01-19T05:23:00.936Z,1.80
2023-01-19T05:25:30.701Z,1.70
2023-01-19T05:27:58.824Z,2.20
2023-01-19T05:30:26.998Z,2.00
2023-01-19T05:32:55.166Z,2.17
2023-01-19T05:35:35.248Z,1.57
2023-01-19T05:38:04.157Z,2.50
2023-01-19T05:40:33.878Z,2.13
2023-01-19T05:43:05.098Z,2.03
2023-01-19T05:45:33.919Z,2.17
2023-01-19T05:48:02.405Z,1.97
2023-01-19T05:50:30.527Z,2.13
2023-01-19T05:53:00.004Z,2.03
2023-01-19T05:55:28.775Z,2.60
2023-01-19T05:57:58.262Z,3.20
2023-01-19T06:00:27.581Z,2.03
2023-01-19T06:02:55.764Z,3.13
2023-01-19T06:05:23.945Z,2.83
2023-01-19T06:07:52.631Z,1.53
2023-01-19T06:10:20.942Z,1.43
2023-01-19T06:12:49.183Z,2.00
2023-01-19T06:15:18.894Z,1.93
2023-01-19T06:17:47.071Z,1.93
2023-01-19T06:20:15.314Z,2.13
2023-01-19T06:22:43.516Z,2.30
2023-01-19T06:25:11.908Z,1.93
2023-01-19T06:27:40.855Z,1.63
2023-01-19T06:30:09.720Z,2.10
2023-01-19T06:32:39.261Z,1.80
2023-01-19T06:35:08.052Z,1.87
2023-01-19T06:37:36.263Z,2.33
2023-01-19T06:40:04.761Z,2.63
2023-01-19T06:42:33.005Z,2.07
2023-01-19T06:45:01.176Z,1.83
2023-01-19T06:47:29.313Z,2.07
2023-01-19T06:49:58.843Z,2.60
2023-01-19T06:52:27.029Z,2.00
2023-01-19T06:54:55.505Z,2.07
2023-01-19T06:57:25.859Z,2.07
2023-01-19T06:59:54.064Z,1.83
2023-01-19T07:02:26.696Z,1.80
2023-01-19T07:04:56.279Z,1.60
2023-01-19T07:07:25.974Z,1.63
2023-01-19T07:09:54.438Z,1.50
2023-01-19T07:12:22.885Z,2.40
2023-01-19T07:14:51.748Z,1.97
2023-01-19T07:17:20.281Z,1.60
2023-01-19T07:19:48.459Z,1.83
2023-01-19T07:22:16.617Z,2.13
2023-01-19T07:24:46.380Z,1.70
2023-01-19T07:27:16.310Z,1.60
2023-01-19T07:29:44.480Z,1.90
2023-01-19T07:32:12.621Z,1.67
2023-01-19T07:34:40.765Z,2.13
2023-01-19T07:37:08.975Z,1.70
2023-01-19T07:39:37.418Z,1.50
2023-01-19T07:42:07.097Z,1.90
2023-01-19T07:44:35.229Z,2.07
2023-01-19T07:47:03.422Z,1.70
2023-01-19T07:49:31.577Z,2.47
2023-01-19T07:51:59.724Z,2.33
2023-01-19T07:54:28.048Z,2.10
2023-01-19T07:56:56.369Z,1.83
2023-01-19T07:59:25.947Z,2.00
2023-01-19T08:01:54.369Z,1.60
2023-01-19T08:04:22.781Z,1.90
2023-01-19T08:06:50.909Z,1.60
2023-01-19T08:09:19.235Z,2.27
2023-01-19T08:11:47.488Z,2.00
2023-01-19T08:14:15.698Z,1.90
2023-01-19T08:16:45.197Z,1.90
2023-01-19T08:19:13.402Z,1.80
2023-01-19T08:21:41.589Z,2.37
2023-01-19T08:24:18.959Z,2.20
2023-01-19T08:26:47.205Z,1.33
2023-01-19T08:29:15.357Z,1.80
2023-01-19T08:31:45.113Z,2.97
2023-01-19T08:34:13.332Z,1.80
2023-01-19T08:36:41.571Z,1.83
2023-01-19T08:39:09.790Z,1.53
2023-01-19T08:41:37.915Z,1.30
2023-01-19T08:44:06.256Z,1.57
2023-01-19T08:46:34.506Z,1.70
2023-01-19T08:49:04.073Z,1.97
2023-01-19T08:51:32.268Z,1.60
2023-01-19T08:54:00.551Z,1.67
2023-01-19T08:56:29.133Z,1.50
2023-01-19T08:59:08.673Z,1.50
2023-01-19T09:01:38.172Z,1.67
2023-01-19T09:04:07.915Z,1.30
2023-01-19T09:06:36.178Z,1.40
2023-01-19T09:09:04.362Z,1.60
2023-01-19T09:11:33.085Z,1.57
2023-01-19T09:14:01.343Z,1.50
2023-01-19T09:16:29.666Z,1.10
2023-01-19T09:18:58.489Z,1.10
2023-01-19T09:21:28.806Z,1.00
2023-01-19T09:23:57.769Z,1.50
2023-01-19T09:26:26.182Z,1.00
2023-01-19T09:28:54.373Z,0.77
2023-01-19T09:31:22.641Z,1.10
2023-01-19T09:33:51.003Z,1.10
2023-01-19T09:36:19.219Z,1.40
2023-01-19T09:38:48.692Z,1.03
2023-01-19T09:41:21.261Z,0.90
2023-01-19T09:43:51.925Z,1.30
2023-01-19T09:46:22.809Z,0.77
2023-01-19T09:48:52.870Z,0.90
2023-01-19T09:51:23.588Z,0.83
2023-01-19T09:53:58.866Z,0.80
2023-01-19T09:56:29.024Z,0.90
2023-01-19T09:58:57.233Z,1.10
2023-01-19T10:01:29.786Z,1.07
2023-01-19T10:04:07.334Z,1.40
2023-01-19T10:06:35.804Z,1.10
2023-01-19T10:09:08.935Z,0.77
2023-01-19T10:11:52.122Z,1.00
2023-01-19T10:14:23.580Z,0.70
2023-01-19T10:16:54.907Z,0.93
2023-01-19T10:19:24.610Z,0.60
2023-01-19T10:21:53.218Z,0.87
2023-01-19T10:24:25.283Z,1.27
2023-01-19T10:26:55.298Z,1.00
2023-01-19T10:29:25.525Z,0.90
2023-01-19T10:31:54.002Z,1.13
2023-01-19T10:34:23.912Z,1.10
2023-01-19T10:36:57.001Z,0.90
2023-01-19T10:39:26.638Z,0.90
2023-01-19T10:41:55.586Z,1.03
2023-01-19T10:44:27.343Z,0.90
2023-01-19T10:46:56.776Z,0.60
2023-01-19T10:49:25.712Z,0.97
2023-01-19T10:51:54.619Z,1.10
2023-01-19T10:54:23.570Z,0.77
2023-01-19T10:56:55.374Z,0.93
2023-01-19T10:59:34.733Z,0.87
2023-01-19T11:02:21.012Z,1.00
2023-01-19T11:04:51.146Z,1.50
2023-01-19T11:07:21.817Z,1.50
2023-01-19T11:09:50.393Z,1.10
2023-01-19T11:12:21.688Z,0.87
2023-01-19T11:14:50.707Z,0.70
2023-01-19T11:17:20.693Z,0.73
2023-01-19T11:19:55.013Z,1.17
2023-01-19T11:22:27.088Z,1.63
2023-01-19T11:24:58.919Z,1.10
2023-01-19T11:27:28.943Z,1.13
2023-01-19T11:30:01.736Z,1.00
2023-01-19T11:32:30.104Z,1.10
2023-01-19T11:34:58.336Z,1.10
2023-01-19T11:37:31.228Z,0.90
2023-01-19T11:40:02.503Z,1.07
2023-01-19T11:42:33.173Z,1.03
2023-01-19T11:45:04.671Z,1.20
2023-01-19T11:47:35.352Z,0.93
2023-01-19T11:50:07.986Z,0.87
2023-01-19T11:52:37.793Z,1.10
2023-01-19T11:55:08.661Z,1.33
2023-01-19T11:57:38.505Z,1.03
2023-01-19T12:00:26.781Z,0.77
2023-01-19T12:02:56.993Z,1.47
2023-01-19T12:05:26.213Z,1.40
2023-01-19T12:07:54.809Z,1.00
2023-01-19T12:10:26.109Z,1.00
2023-01-19T12:12:55.934Z,1.03
2023-01-19T12:15:26.607Z,1.07
2023-01-19T12:17:56.059Z,1.50
2023-01-19T12:20:28.280Z,1.00
2023-01-19T12:22:59.850Z,0.80
2023-01-19T12:25:33.182Z,1.43
2023-01-19T12:28:02.884Z,1.00
2023-01-19T12:30:31.450Z,1.10
2023-01-19T12:33:14.510Z,1.00
2023-01-19T12:35:55.505Z,1.50
2023-01-19T12:38:37.124Z,1.30
2023-01-19T12:41:18.408Z,0.80
2023-01-19T12:43:48.235Z,1.20
2023-01-19T12:46:20.942Z,1.27
2023-01-19T12:48:49.175Z,2.07
2023-01-19T12:51:24.485Z,0.90
2023-01-19T12:53:53.657Z,1.30
2023-01-19T12:56:22.575Z,0.63
2023-01-19T12:58:52.091Z,1.00
2023-01-19T13:01:21.795Z,1.10
2023-01-19T13:04:00.984Z,1.00
2023-01-19T13:06:48.112Z,1.20
2023-01-19T13:09:30.691Z,0.90
2023-01-19T13:12:13.791Z,1.20
2023-01-19T13:14:43.704Z,1.57
2023-01-19T13:17:26.133Z,1.53
2023-01-19T13:19:56.431Z,1.40
2023-01-19T13:22:43.025Z,1.00
2023-01-19T13:25:13.848Z,1.43
2023-01-19T13:27:42.585Z,0.83
2023-01-19T13:30:17.313Z,0.90
2023-01-19T13:32:45.564Z,2.17
2023-01-19T13:35:16.579Z,1.07
2023-01-19T13:37:46.044Z,1.10
2023-01-19T13:40:19.620Z,1.00
2023-01-19T13:42:48.150Z,0.90
2023-01-19T13:45:27.995Z,0.90
2023-01-19T13:47:58.105Z,1.10
2023-01-19T13:50:27.870Z,0.90
2023-01-19T13:52:58.715Z,0.97
2023-01-19T13:55:27.971Z,0.80
2023-01-19T13:57:56.244Z,1.00
2023-01-19T14:00:27.588Z,0.80
2023-01-19T14:02:58.802Z,1.20
2023-01-19T14:05:28.294Z,1.20
2023-01-19T14:08:06.950Z,0.80
2023-01-19T14:10:35.294Z,1.20
2023-01-19T14:13:04.145Z,1.10
2023-01-19T14:15:34.732Z,1.20
2023-01-19T14:18:21.404Z,1.90
2023-01-19T14:21:11.252Z,0.90
2023-01-19T14:23:49.166Z,1.00
2023-01-19T14:26:36.265Z,0.87
2023-01-19T14:29:09.129Z,1.50
2023-01-19T14:31:44.064Z,0.67
2023-01-19T14:34:27.349Z,0.83
2023-01-19T14:36:55.565Z,0.77
2023-01-19T14:39:24.986Z,0.80
2023-01-19T14:41:54.224Z,1.10
2023-01-19T14:44:28.277Z,1.20
2023-01-19T14:46:59.440Z,1.83
2023-01-19T14:49:31.103Z,1.10
2023-01-19T14:51:59.313Z,1.30
2023-01-19T14:54:32.019Z,1.40
2023-01-19T14:57:00.215Z,1.33
2023-01-19T14:59:28.420Z,1.50
2023-01-19T15:01:59.626Z,1.40
2023-01-19T15:04:27.973Z,1.60
2023-01-19T15:06:56.986Z,1.50
2023-01-19T15:09:25.401Z,1.57
2023-01-19T15:11:54.153Z,1.30
2023-01-19T15:14:22.891Z,1.30
2023-01-19T15:16:51.180Z,1.57
2023-01-19T15:19:20.740Z,1.60
2023-01-19T15:21:48.860Z,1.70
2023-01-19T15:24:18.119Z,1.60
2023-01-19T15:26:46.615Z,1.80
2023-01-19T15:29:18.374Z,1.77
2023-01-19T15:31:46.651Z,1.80
2023-01-19T15:34:15.270Z,1.60
2023-01-19T15:36:45.008Z,1.80
2023-01-19T15:39:13.261Z,2.00
2023-01-19T15:41:41.588Z,1.67
2023-01-19T15:44:11.043Z,1.80
2023-01-19T15:46:39.375Z,1.80
2023-01-19T15:49:07.686Z,1.23
2023-01-19T15:51:35.905Z,1.60
2023-01-19T15:54:05.560Z,1.67
2023-01-19T15:56:33.846Z,1.80
2023-01-19T15:59:03.354Z,1.50
2023-01-19T16:01:32.756Z,1.50
2023-01-19T16:04:01.743Z,1.70
2023-01-19T16:06:30.271Z,1.60
2023-01-19T16:09:01.259Z,1.77
2023-01-19T16:11:32.599Z,1.87
2023-01-19T16:14:00.989Z,1.70
2023-01-19T16:16:29.270Z,1.70
2023-01-19T16:18:57.884Z,2.00
2023-01-19T16:21:26.256Z,1.57
2023-01-19T16:23:54.811Z,1.30
2023-01-19T16:26:26.273Z,1.10
2023-01-19T16:28:57.034Z,0.90
2023-01-19T16:31:25.479Z,0.90
2023-01-19T16:33:53.673Z,0.60
2023-01-19T16:36:23.671Z,0.57
2023-01-19T16:38:51.956Z,1.00
2023-01-19T16:41:20.587Z,0.80
2023-01-19T16:43:52.691Z,0.80
2023-01-19T16:46:23.365Z,0.60
2023-01-19T16:48:51.960Z,0.70
2023-01-19T16:51:20.719Z,0.70
2023-01-19T16:53:50.840Z,0.50
2023-01-19T16:56:19.153Z,0.60
2023-01-19T16:58:47.614Z,0.70
2023-01-19T17:01:18.936Z,0.60
2023-01-19T17:03:49.661Z,0.60
2023-01-19T17:06:20.098Z,0.80
2023-01-19T17:08:48.314Z,0.70
2023-01-19T17:11:20.408Z,0.97
2023-01-19T17:13:48.625Z,0.70
2023-01-19T17:16:17.023Z,0.80
2023-01-19T17:18:45.218Z,1.07
2023-01-19T17:21:17.806Z,0.70
2023-01-19T17:23:46.733Z,0.80
2023-01-19T17:26:15.235Z,0.90
2023-01-19T17:28:43.641Z,1.00
2023-01-19T17:31:12.622Z,0.90
2023-01-19T17:33:40.937Z,1.70
2023-01-19T17:36:10.209Z,2.03
2023-01-19T17:38:39.959Z,1.73
2023-01-19T17:41:13.835Z,1.13
2023-01-19T17:43:42.029Z,1.03
2023-01-19T17:46:10.243Z,0.80
2023-01-19T17:48:38.518Z,0.73
2023-01-19T17:51:07.625Z,1.60
2023-01-19T17:53:37.468Z,1.20
2023-01-19T17:56:07.556Z,1.17
2023-01-19T17:58:35.997Z,0.90
2023-01-19T18:01:09.597Z,1.00
2023-01-19T18:03:37.852Z,1.10
2023-01-19T18:06:06.235Z,1.77
2023-01-19T18:08:36.265Z,2.37
2023-01-19T18:11:04.875Z,2.80
2023-01-19T18:13:34.468Z,2.40
2023-01-19T18:16:03.481Z,1.90
2023-01-19T18:18:32.044Z,1.70
2023-01-19T18:21:01.021Z,1.87
2023-01-19T18:23:45.580Z,1.70
2023-01-19T18:26:14.851Z,1.27
2023-01-19T18:28:44.431Z,1.80
2023-01-19T18:31:13.335Z,2.10
2023-01-19T18:33:41.937Z,1.87
2023-01-19T18:36:10.702Z,2.53
2023-01-19T18:38:39.705Z,2.50
2023-01-19T18:41:08.664Z,8.07
2023-01-19T18:43:36.956Z,8.00
2023-01-19T18:46:06.621Z,3.77
2023-01-19T18:48:35.223Z,3.10
2023-01-19T18:51:06.722Z,2.37
2023-01-19T18:53:35.445Z,3.43
2023-01-19T18:56:04.206Z,5.50
2023-01-19T18:58:32.825Z,3.90
2023-01-19T19:01:02.048Z,3.03
2023-01-19T19:03:31.656Z,2.53
2023-01-19T19:06:03.946Z,2.13
2023-01-19T19:08:32.267Z,2.63
2023-01-19T19:11:00.470Z,2.20
2023-01-19T19:13:28.657Z,2.53
2023-01-19T19:16:03.502Z,3.00
2023-01-19T19:18:33.075Z,3.03
2023-01-19T19:21:01.255Z,3.50
2023-01-19T19:23:29.425Z,2.97
2023-01-19T19:26:02.435Z,3.30
2023-01-19T19:28:30.602Z,3.63
2023-01-19T19:31:06.099Z,4.07
2023-01-19T19:33:38.716Z,4.00
2023-01-19T19:38:37.678Z,4.20
2023-01-19T19:41:09.212Z,5.00
2023-01-19T19:43:38.046Z,4.03
2023-01-19T19:46:08.145Z,4.07
2023-01-19T19:48:39.365Z,3.40
2023-01-19T19:51:17.406Z,3.50
2023-01-19T19:53:46.904Z,3.97
2023-01-19T19:56:15.733Z,3.30
2023-01-19T19:58:44.623Z,3.20
2023-01-19T20:01:14.232Z,2.80
2023-01-19T20:03:44.247Z,3.50
2023-01-19T20:06:13.284Z,3.10
2023-01-19T20:08:41.486Z,4.27
2023-01-19T20:11:11.188Z,3.53
2023-01-19T20:13:40.087Z,4.20
2023-01-19T20:16:10.057Z,3.03
2023-01-19T20:18:38.711Z,2.63
2023-01-19T20:21:13.804Z,2.77
2023-01-19T20:23:41.986Z,3.23
2023-01-19T20:26:10.741Z,3.40
2023-01-19T20:28:39.223Z,3.30
2023-01-19T20:31:11.237Z,3.00
2023-01-19T20:33:39.486Z,2.60
2023-01-19T20:36:08.080Z,2.67
2023-01-19T20:38:37.735Z,3.10
2023-01-19T20:41:06.127Z,4.47
2023-01-19T20:43:34.698Z,3.47
2023-01-19T20:46:03.013Z,3.43
2023-01-19T20:48:31.238Z,3.80
2023-01-19T20:50:59.676Z,3.30
2023-01-19T20:53:27.916Z,3.10
2023-01-19T20:55:57.435Z,3.03
2023-01-19T20:58:25.647Z,3.40
2023-01-19T21:00:53.947Z,3.40
2023-01-19T21:03:22.155Z,3.40
2023-01-19T21:05:50.340Z,3.77
2023-01-19T21:08:18.554Z,3.77
2023-01-19T21:10:46.706Z,3.90
2023-01-19T21:13:16.232Z,3.70
2023-01-19T21:15:44.381Z,4.17
2023-01-19T21:18:12.573Z,3.83
2023-01-19T21:20:40.781Z,3.33
2023-01-19T21:23:09.055Z,3.27
2023-01-19T21:25:38.287Z,3.13
2023-01-19T21:28:06.557Z,3.20
2023-01-19T21:30:37.597Z,3.17
2023-01-19T21:33:07.100Z,4.00
2023-01-19T21:35:35.278Z,3.10
2023-01-19T21:38:03.493Z,3.20
2023-01-19T21:40:31.664Z,3.10
2023-01-19T21:42:59.839Z,3.20
2023-01-19T21:45:28.122Z,3.00
2023-01-19T21:47:57.732Z,3.07
2023-01-19T21:50:25.870Z,2.77
2023-01-19T21:52:54.204Z,2.80
2023-01-19T21:55:22.407Z,2.57
2023-01-19T21:57:52.961Z,2.43
2023-01-19T22:00:21.453Z,2.60
2023-01-19T22:03:03.159Z,2.40
2023-01-19T22:05:36.762Z,2.60
2023-01-19T22:08:06.252Z,2.20
2023-01-19T22:10:36.559Z,2.07
2023-01-19T22:13:06.595Z,1.90
2023-01-19T22:15:34.808Z,2.10
2023-01-19T22:18:03.001Z,2.50
2023-01-19T22:20:31.246Z,2.43
2023-01-19T22:23:00.910Z,2.60
2023-01-19T22:25:29.089Z,2.40
2023-01-19T22:27:58.604Z,2.20
2023-01-19T22:30:26.961Z,2.60
2023-01-19T22:32:55.264Z,2.00
2023-01-19T22:35:23.469Z,2.20
2023-01-19T22:37:51.606Z,2.47
2023-01-19T22:40:21.222Z,2.80
2023-01-19T22:42:50.111Z,2.90
2023-01-19T22:45:18.309Z,3.50
2023-01-19T22:47:47.779Z,3.90
2023-01-19T22:50:16.281Z,4.67
2023-01-19T22:52:44.458Z,5.03
2023-01-19T22:55:13.166Z,5.60
2023-01-19T22:57:42.793Z,6.07
2023-01-19T23:00:11.787Z,6.70
2023-01-19T23:02:39.954Z,6.77
2023-01-19T23:05:08.693Z,8.00
2023-01-19T23:07:36.948Z,7.97
2023-01-19T23:10:05.199Z,8.20
2023-01-19T23:12:33.357Z,9.00
2023-01-19T23:15:02.888Z,9.27
2023-01-19T23:17:31.070Z,10.03
2023-01-19T23:19:59.896Z,11.60
2023-01-19T23:22:28.065Z,12.30
2023-01-19T23:24:56.251Z,12.40
2023-01-19T23:27:24.420Z,13.00
2023-01-19T23:29:52.552Z,14.40
2023-01-19T23:32:22.130Z,14.10
2023-01-19T23:34:50.307Z,14.93
2023-01-19T23:37:18.443Z,16.37
2023-01-19T23:39:46.658Z,16.13
2023-01-19T23:42:14.791Z,15.93
2023-01-19T23:44:43.911Z,17.20
2023-01-19T23:47:12.024Z,17.37
2023-01-19T23:49:42.180Z,16.77
2023-01-19T23:52:10.459Z,16.90
2023-01-19T23:54:38.681Z,17.63
2023-01-19T23:57:06.895Z,17.57
2023-01-19T23:59:35.055Z,18.10
